Time;durP1;ratioP1;P1;durP2;ratioP2;P2;SDS_P1;SDS_P2;PMS_P1;PMS_P2;Temp;Humidity;BMP_temperature;BMP_pressure;BME280_temperature;BME280_humidity;BME280_pressure;Samples;Min_cycle;Max_cycle;Signal;HPM_P1;HPM_P2
2023/07/28 00:01:18;;;;;;;32.83;11.50;;;;;;;;;;5099866;28;20082;-67
2023/07/28 00:03:43;;;;;;;35.17;12.07;;;;;;;;;;5097155;28;20531;-64
2023/07/28 00:06:08;;;;;;;34.35;11.73;;;;;;;;;;5093756;28;20085;-65
2023/07/28 00:08:33;;;;;;;21.55;8.85;;;;;;;;;;5094155;28;20012;-68
2023/07/28 00:10:59;;;;;;;30.40;12.00;;;;;;;;;;5095008;28;20089;-68
2023/07/28 00:13:24;;;;;;;35.67;12.88;;;;;;;;;;5094463;28;20388;-68
2023/07/28 00:15:49;;;;;;;34.58;13.35;;;;;;;;;;5094542;28;20406;-68
2023/07/28 00:18:14;;;;;;;29.52;10.90;;;;;;;;;;5094463;28;20070;-68
2023/07/28 00:20:39;;;;;;;31.02;11.65;;;;;;;;;;5074686;28;20102;-68
2023/07/28 00:23:05;;;;;;;27.30;10.23;;;;;;;;;;5074877;28;20066;-68
2023/07/28 00:25:30;;;;;;;26.45;10.25;;;;;;;;;;5075354;28;20017;-68
2023/07/28 00:27:55;;;;;;;29.65;10.65;;;;;;;;;;5086559;28;20032;-68
2023/07/28 00:30:21;;;;;;;26.42;10.40;;;;;;;;;;5086291;28;20020;-68
2023/07/28 00:32:46;;;;;;;24.25;9.77;;;;;;;;;;5075118;28;20100;-68
2023/07/28 00:35:11;;;;;;;28.58;10.68;;;;;;;;;;5086539;28;20475;-68
2023/07/28 00:37:37;;;;;;;27.63;11.00;;;;;;;;;;5087543;28;20084;-68
2023/07/28 00:40:03;;;;;;;31.35;10.82;;;;;;;;;;5076613;28;20102;-69
2023/07/28 00:42:28;;;;;;;24.23;9.40;;;;;;;;;;5075095;28;20062;-68
2023/07/28 00:44:53;;;;;;;28.13;10.70;;;;;;;;;;5086908;28;20712;-68
2023/07/28 00:47:19;;;;;;;26.80;11.20;;;;;;;;;;5092855;28;20427;-68
2023/07/28 00:49:44;;;;;;;28.85;10.68;;;;;;;;;;5093527;28;20012;-68
2023/07/28 00:52:09;;;;;;;31.95;11.73;;;;;;;;;;5090924;28;20024;-68
2023/07/28 00:54:36;;;;;;;32.47;12.60;;;;;;;;;;5078448;28;20020;-69
2023/07/28 00:57:02;;;;;;;31.92;13.23;;;;;;;;;;5077110;28;20027;-69
2023/07/28 00:59:27;;;;;;;33.40;12.40;;;;;;;;;;5077465;28;20012;-64
2023/07/28 01:01:52;;;;;;;34.53;13.30;;;;;;;;;;5084499;28;20031;-64
2023/07/28 01:04:18;;;;;;;36.67;13.40;;;;;;;;;;5086434;28;20023;-65
2023/07/28 01:06:52;;;;;;;35.22;13.48;;;;;;;;;;5077258;28;20023;-65
2023/07/28 01:09:21;;;;;;;34.63;13.93;;;;;;;;;;5076841;28;20013;-66
2023/07/28 01:12:07;;;;;;;32.65;13.30;;;;;;;;;;5076652;28;20042;-64
2023/07/28 01:14:32;;;;;;;37.03;14.35;;;;;;;;;;5076494;28;20078;-65
2023/07/28 01:16:57;;;;;;;36.13;12.63;;;;;;;;;;5083976;28;20036;-63
2023/07/28 01:19:23;;;;;;;34.85;13.15;;;;;;;;;;5078382;28;20048;-67
2023/07/28 01:21:53;;;;;;;39.70;14.63;;;;;;;;;;5090298;28;20025;-66
2023/07/28 01:24:27;;;;;;;38.95;14.35;;;;;;;;;;5092719;28;20034;-66
2023/07/28 01:26:52;;;;;;;38.63;15.07;;;;;;;;;;5081176;28;20024;-65
2023/07/28 01:29:19;;;;;;;43.13;15.45;;;;;;;;;;5087217;28;20028;-65
2023/07/28 01:31:45;;;;;;;38.75;15.57;;;;;;;;;;5089698;28;20012;-65
2023/07/28 01:34:11;;;;;;;47.22;17.33;;;;;;;;;;5091856;28;20047;-65
2023/07/28 01:36:36;;;;;;;45.80;15.65;;;;;;;;;;5092546;28;20051;-64
2023/07/28 01:39:02;;;;;;;47.47;15.98;;;;;;;;;;5074902;28;20028;-66
2023/07/28 01:41:27;;;;;;;54.45;18.70;;;;;;;;;;5073411;28;20099;-64
2023/07/28 01:43:55;;;;;;;46.90;16.25;;;;;;;;;;5073246;28;20022;-64
2023/07/28 01:46:20;;;;;;;52.50;17.58;;;;;;;;;;5055210;28;20078;-65
2023/07/28 01:48:45;;;;;;;51.50;17.30;;;;;;;;;;5073249;28;20016;-65
2023/07/28 01:51:11;;;;;;;59.75;18.67;;;;;;;;;;5079125;28;20126;-65
2023/07/28 01:53:36;;;;;;;60.45;21.67;;;;;;;;;;5089336;28;20411;-64
2023/07/28 01:56:01;;;;;;;63.17;21.08;;;;;;;;;;5076733;28;20038;-64
2023/07/28 01:58:27;;;;;;;63.47;20.60;;;;;;;;;;5076517;28;20539;-64
2023/07/28 02:00:52;;;;;;;64.25;20.92;;;;;;;;;;5072966;28;20027;-65
2023/07/28 02:03:17;;;;;;;52.88;18.95;;;;;;;;;;5074756;28;20028;-64
2023/07/28 02:05:44;;;;;;;57.80;17.60;;;;;;;;;;5072733;28;20058;-65
2023/07/28 02:08:09;;;;;;;55.60;20.13;;;;;;;;;;5078282;28;20012;-65
2023/07/28 02:10:34;;;;;;;55.53;17.98;;;;;;;;;;5091638;28;20383;-66
2023/07/28 02:13:00;;;;;;;51.60;19.48;;;;;;;;;;5083283;28;20358;-65
2023/07/28 02:15:25;;;;;;;54.33;19.77;;;;;;;;;;5080297;28;20025;-65
2023/07/28 02:17:50;;;;;;;48.03;16.65;;;;;;;;;;5072942;28;20020;-65
2023/07/28 02:20:15;;;;;;;56.78;19.65;;;;;;;;;;5100153;28;20082;-66
2023/07/28 02:22:43;;;;;;;51.10;18.35;;;;;;;;;;5110626;28;20379;-66
2023/07/28 02:25:09;;;;;;;51.20;19.08;;;;;;;;;;5111224;28;20023;-66
2023/07/28 02:27:35;;;;;;;53.53;18.85;;;;;;;;;;5110621;28;20016;-65
2023/07/28 02:30:00;;;;;;;55.53;19.08;;;;;;;;;;5106032;28;20099;-64
2023/07/28 02:32:26;;;;;;;53.72;17.95;;;;;;;;;;5108074;28;20018;-65
2023/07/28 02:34:51;;;;;;;55.08;17.90;;;;;;;;;;5112130;28;20011;-65
2023/07/28 02:37:16;;;;;;;58.92;19.48;;;;;;;;;;5112364;28;20095;-66
2023/07/28 02:39:42;;;;;;;54.00;16.77;;;;;;;;;;5112467;28;20019;-66
2023/07/28 02:42:07;;;;;;;53.08;17.98;;;;;;;;;;5111430;28;20081;-64
2023/07/28 02:44:32;;;;;;;58.88;20.30;;;;;;;;;;5112193;28;20039;-66
2023/07/28 02:46:57;;;;;;;63.88;22.42;;;;;;;;;;5112179;28;20024;-64
2023/07/28 02:49:23;;;;;;;65.00;22.02;;;;;;;;;;5112497;28;20060;-65
2023/07/28 02:51:48;;;;;;;58.40;20.17;;;;;;;;;;5111139;28;20467;-69
2023/07/28 02:54:13;;;;;;;68.95;22.17;;;;;;;;;;5107145;28;20022;-69
2023/07/28 02:56:38;;;;;;;61.42;20.85;;;;;;;;;;5111606;28;20368;-69
2023/07/28 02:59:04;;;;;;;67.38;21.73;;;;;;;;;;5108104;28;20376;-66
2023/07/28 03:01:33;;;;;;;57.15;19.17;;;;;;;;;;5111048;28;20471;-64
2023/07/28 03:03:58;;;;;;;60.40;20.48;;;;;;;;;;5110997;28;20023;-64
2023/07/28 03:06:23;;;;;;;67.68;20.73;;;;;;;;;;5106913;28;20020;-65
2023/07/28 03:08:49;;;;;;;62.03;21.77;;;;;;;;;;5105357;28;20530;-65
2023/07/28 03:11:14;;;;;;;54.45;18.48;;;;;;;;;;5111395;28;20425;-64
2023/07/28 03:13:39;;;;;;;63.80;19.55;;;;;;;;;;5114069;28;20020;-65
2023/07/28 03:16:04;;;;;;;57.58;19.58;;;;;;;;;;5111271;28;20103;-65
2023/07/28 03:18:29;;;;;;;57.55;19.92;;;;;;;;;;5110501;28;20082;-65
2023/07/28 03:20:55;;;;;;;57.42;19.65;;;;;;;;;;5111113;28;20047;-64
2023/07/28 03:23:20;;;;;;;48.83;16.52;;;;;;;;;;5111068;28;20328;-64
2023/07/28 03:25:45;;;;;;;54.45;19.15;;;;;;;;;;5110869;28;20019;-65
2023/07/28 03:28:10;;;;;;;52.40;19.15;;;;;;;;;;5112129;28;20094;-65
2023/07/28 03:30:36;;;;;;;58.92;19.60;;;;;;;;;;5109250;28;20091;-65
2023/07/28 03:33:01;;;;;;;56.97;18.30;;;;;;;;;;5106933;28;20039;-63
2023/07/28 03:35:26;;;;;;;58.83;19.90;;;;;;;;;;5107393;28;20529;-65
2023/07/28 03:37:51;;;;;;;52.05;18.23;;;;;;;;;;5111103;28;20024;-66
2023/07/28 03:40:17;;;;;;;49.70;17.00;;;;;;;;;;5113985;28;20015;-65
2023/07/28 03:42:42;;;;;;;56.80;18.50;;;;;;;;;;5115016;28;20016;-66
2023/07/28 03:45:08;;;;;;;64.85;21.55;;;;;;;;;;5114563;28;20026;-66
2023/07/28 03:47:33;;;;;;;52.88;18.83;;;;;;;;;;5114287;28;20094;-64
2023/07/28 03:49:58;;;;;;;71.20;22.20;;;;;;;;;;5113808;28;20028;-65
2023/07/28 03:52:23;;;;;;;72.22;21.60;;;;;;;;;;5114054;28;20031;-66
2023/07/28 03:54:49;;;;;;;73.03;20.83;;;;;;;;;;5114264;28;20015;-66
2023/07/28 03:57:14;;;;;;;62.17;20.95;;;;;;;;;;5113327;28;20455;-65
2023/07/28 03:59:39;;;;;;;62.97;19.55;;;;;;;;;;5114507;28;20050;-66
2023/07/28 04:02:04;;;;;;;75.80;23.08;;;;;;;;;;5113058;28;20019;-65
2023/07/28 04:04:30;;;;;;;73.25;22.35;;;;;;;;;;5113968;28;20023;-65
2023/07/28 04:06:55;;;;;;;77.03;22.77;;;;;;;;;;5113325;28;20027;-66
2023/07/28 04:09:21;;;;;;;65.40;22.08;;;;;;;;;;5115359;28;20026;-66
2023/07/28 04:11:46;;;;;;;73.05;23.23;;;;;;;;;;5114057;28;20019;-65
2023/07/28 04:14:11;;;;;;;69.85;22.25;;;;;;;;;;5117336;27;20016;-65
2023/07/28 04:16:36;;;;;;;67.75;21.50;;;;;;;;;;5113941;28;20019;-65
2023/07/28 04:19:02;;;;;;;69.85;22.50;;;;;;;;;;5114845;28;20380;-64
2023/07/28 04:21:27;;;;;;;60.22;20.58;;;;;;;;;;5114337;28;20471;-64
2023/07/28 04:23:52;;;;;;;66.18;22.23;;;;;;;;;;5113807;28;20015;-64
2023/07/28 04:26:18;;;;;;;67.97;21.83;;;;;;;;;;5113563;28;20020;-66
2023/07/28 04:28:43;;;;;;;65.63;22.25;;;;;;;;;;5111650;28;20020;-64
2023/07/28 04:31:08;;;;;;;75.85;23.70;;;;;;;;;;5114638;28;20049;-64
2023/07/28 04:33:34;;;;;;;70.97;22.60;;;;;;;;;;5110365;28;20008;-65
2023/07/28 04:35:59;;;;;;;59.95;19.92;;;;;;;;;;5111256;28;20020;-64
2023/07/28 04:38:24;;;;;;;72.03;23.92;;;;;;;;;;5112507;28;20431;-66
2023/07/28 04:40:50;;;;;;;66.85;23.50;;;;;;;;;;5109401;28;20111;-66
2023/07/28 04:43:15;;;;;;;64.30;23.30;;;;;;;;;;5110514;28;20494;-64
2023/07/28 04:45:40;;;;;;;69.20;23.17;;;;;;;;;;5112779;28;20431;-64
2023/07/28 04:48:05;;;;;;;62.45;23.20;;;;;;;;;;5114255;28;20390;-63
2023/07/28 04:50:32;;;;;;;65.05;22.52;;;;;;;;;;5113806;28;20378;-66
2023/07/28 04:52:57;;;;;;;61.25;23.33;;;;;;;;;;5109901;28;20502;-65
2023/07/28 04:55:22;;;;;;;66.18;23.75;;;;;;;;;;5109799;28;20024;-64
2023/07/28 04:57:47;;;;;;;58.63;22.13;;;;;;;;;;5113220;28;20414;-65
2023/07/28 05:00:13;;;;;;;59.40;23.42;;;;;;;;;;5114072;28;20019;-64
2023/07/28 05:02:38;;;;;;;56.97;22.98;;;;;;;;;;5113976;28;20020;-64
2023/07/28 05:05:04;;;;;;;56.03;23.02;;;;;;;;;;5112784;28;20019;-65
2023/07/28 05:07:29;;;;;;;63.35;24.33;;;;;;;;;;5113962;28;20149;-65
2023/07/28 05:09:54;;;;;;;60.47;23.13;;;;;;;;;;5114091;28;20047;-64
2023/07/28 05:12:20;;;;;;;52.08;21.70;;;;;;;;;;5113749;28;20428;-63
2023/07/28 05:14:45;;;;;;;50.70;21.70;;;;;;;;;;5112997;28;20024;-65
2023/07/28 05:17:11;;;;;;;46.88;21.15;;;;;;;;;;5113258;28;20095;-63
2023/07/28 05:19:36;;;;;;;45.78;20.02;;;;;;;;;;5101422;28;20180;-65
2023/07/28 05:22:01;;;;;;;49.20;21.23;;;;;;;;;;5093633;28;20035;-64
2023/07/28 05:24:26;;;;;;;43.17;19.35;;;;;;;;;;5092841;28;20558;-66
2023/07/28 05:26:52;;;;;;;45.85;19.95;;;;;;;;;;5092939;28;20032;-66
2023/07/28 05:29:17;;;;;;;43.15;19.27;;;;;;;;;;5089088;28;20024;-65
2023/07/28 05:31:42;;;;;;;42.25;18.92;;;;;;;;;;5089205;28;20529;-64
2023/07/28 05:34:07;;;;;;;39.20;17.45;;;;;;;;;;5092802;28;20063;-64
2023/07/28 05:36:33;;;;;;;46.38;20.70;;;;;;;;;;5087530;28;20024;-66
2023/07/28 05:38:58;;;;;;;33.67;16.20;;;;;;;;;;5092186;28;20028;-66
2023/07/28 05:41:24;;;;;;;43.05;19.02;;;;;;;;;;5091127;28;20028;-65
2023/07/28 05:43:49;;;;;;;46.13;19.65;;;;;;;;;;5092879;28;20044;-65
2023/07/28 05:46:14;;;;;;;42.45;19.38;;;;;;;;;;5090919;28;20054;-66
2023/07/28 05:48:39;;;;;;;38.72;18.45;;;;;;;;;;5090341;28;20087;-64
2023/07/28 05:51:05;;;;;;;39.17;18.77;;;;;;;;;;5091072;28;20423;-65
2023/07/28 05:53:30;;;;;;;43.30;19.67;;;;;;;;;;5094394;28;20483;-66
2023/07/28 05:55:55;;;;;;;39.63;17.92;;;;;;;;;;5090881;28;20395;-66
2023/07/28 05:58:20;;;;;;;42.17;17.98;;;;;;;;;;5089123;28;20417;-67
2023/07/28 06:00:45;;;;;;;44.17;18.52;;;;;;;;;;5092409;28;20557;-64
2023/07/28 06:03:11;;;;;;;42.97;18.65;;;;;;;;;;5091489;28;20387;-65
2023/07/28 06:05:38;;;;;;;39.60;17.45;;;;;;;;;;5089331;28;20024;-65
2023/07/28 06:08:03;;;;;;;45.08;18.63;;;;;;;;;;5091497;28;20024;-66
2023/07/28 06:10:28;;;;;;;40.45;18.38;;;;;;;;;;5088006;28;20035;-64
2023/07/28 06:12:54;;;;;;;43.67;18.70;;;;;;;;;;5092450;28;20027;-66
2023/07/28 06:15:19;;;;;;;43.90;16.95;;;;;;;;;;5092211;28;20380;-64
2023/07/28 06:17:44;;;;;;;40.13;18.77;;;;;;;;;;5091541;28;20035;-63
2023/07/28 06:20:10;;;;;;;42.35;18.33;;;;;;;;;;5092265;28;20052;-63
2023/07/28 06:22:35;;;;;;;42.33;18.70;;;;;;;;;;5102550;28;20023;-64
2023/07/28 06:25:00;;;;;;;36.25;16.92;;;;;;;;;;5100215;28;20045;-66
2023/07/28 06:27:26;;;;;;;43.35;18.17;;;;;;;;;;5103236;28;20032;-64
2023/07/28 06:29:51;;;;;;;38.65;17.58;;;;;;;;;;5093106;28;20069;-65
2023/07/28 06:32:16;;;;;;;45.97;18.67;;;;;;;;;;5093018;28;20073;-66
2023/07/28 06:34:41;;;;;;;39.72;17.38;;;;;;;;;;5092995;28;20016;-65
2023/07/28 06:37:07;;;;;;;33.60;15.82;;;;;;;;;;5097432;28;20043;-64
2023/07/28 06:39:32;;;;;;;33.33;14.60;;;;;;;;;;5109217;28;20043;-65
2023/07/28 06:41:57;;;;;;;33.55;16.48;;;;;;;;;;5092213;28;20023;-64
2023/07/28 06:44:22;;;;;;;36.65;16.55;;;;;;;;;;5110221;28;20380;-66
2023/07/28 06:46:48;;;;;;;34.03;15.35;;;;;;;;;;5097211;28;20600;-65
2023/07/28 06:49:13;;;;;;;34.17;16.73;;;;;;;;;;5090538;28;20380;-63
2023/07/28 06:51:38;;;;;;;23.98;11.95;;;;;;;;;;5092646;28;20460;-66
2023/07/28 06:54:03;;;;;;;32.40;16.08;;;;;;;;;;5092459;28;20383;-65
2023/07/28 06:56:29;;;;;;;29.63;15.95;;;;;;;;;;5091770;28;20081;-64
2023/07/28 06:58:54;;;;;;;30.27;15.93;;;;;;;;;;5092416;28;20020;-65
2023/07/28 07:01:19;;;;;;;29.85;16.00;;;;;;;;;;5091782;28;20024;-66
2023/07/28 07:03:45;;;;;;;28.30;14.90;;;;;;;;;;5092662;28;20024;-65
2023/07/28 07:06:10;;;;;;;29.48;15.50;;;;;;;;;;5092204;28;20074;-65
2023/07/28 07:08:35;;;;;;;28.88;15.10;;;;;;;;;;5092356;28;20020;-64
2023/07/28 07:11:01;;;;;;;26.23;15.57;;;;;;;;;;5095479;28;20024;-63
2023/07/28 07:13:26;;;;;;;23.73;13.60;;;;;;;;;;5102126;28;20107;-65
2023/07/28 07:15:51;;;;;;;25.30;14.32;;;;;;;;;;5095570;28;20031;-64
2023/07/28 07:18:16;;;;;;;24.33;14.50;;;;;;;;;;5096359;28;20023;-64
2023/07/28 07:20:41;;;;;;;25.10;14.35;;;;;;;;;;5112475;28;20153;-65
2023/07/28 07:23:07;;;;;;;24.50;14.68;;;;;;;;;;5114754;28;20028;-64
2023/07/28 07:25:32;;;;;;;24.55;13.57;;;;;;;;;;5107612;28;20024;-66
2023/07/28 07:27:57;;;;;;;25.23;14.15;;;;;;;;;;5083285;28;20371;-65
2023/07/28 07:30:22;;;;;;;23.85;13.93;;;;;;;;;;5093245;28;20559;-65
2023/07/28 07:32:48;;;;;;;22.83;13.57;;;;;;;;;;5095460;28;20031;-64
2023/07/28 07:35:13;;;;;;;26.25;13.88;;;;;;;;;;5095610;28;20032;-64
2023/07/28 07:37:38;;;;;;;22.27;13.80;;;;;;;;;;5091733;28;20030;-64
2023/07/28 07:40:04;;;;;;;23.27;13.77;;;;;;;;;;5088515;28;20020;-64
2023/07/28 07:42:41;;;;;;;21.88;13.35;;;;;;;;;;5096407;28;20020;-63
2023/07/28 07:45:07;;;;;;;25.10;13.73;;;;;;;;;;5083152;28;20028;-63
2023/07/28 07:47:32;;;;;;;26.63;15.00;;;;;;;;;;5086144;28;20476;-64
2023/07/28 07:49:57;;;;;;;27.30;14.93;;;;;;;;;;5085714;28;20016;-63
2023/07/28 07:52:23;;;;;;;27.83;14.20;;;;;;;;;;5093739;28;20028;-64
2023/07/28 07:54:48;;;;;;;23.70;14.10;;;;;;;;;;5089115;28;20419;-62
2023/07/28 07:57:13;;;;;;;25.42;14.57;;;;;;;;;;5084430;28;20376;-61
2023/07/28 07:59:39;;;;;;;26.00;15.23;;;;;;;;;;5092791;28;20498;-64
2023/07/28 08:02:04;;;;;;;25.15;14.63;;;;;;;;;;5090789;28;20384;-61
2023/07/28 08:04:31;;;;;;;22.88;13.23;;;;;;;;;;5084965;28;20107;-63
2023/07/28 08:06:56;;;;;;;20.23;13.57;;;;;;;;;;5091283;28;20024;-61
2023/07/28 08:09:21;;;;;;;20.25;13.43;;;;;;;;;;5089868;28;20012;-63
2023/07/28 08:11:47;;;;;;;18.35;11.80;;;;;;;;;;5093084;28;20475;-60
2023/07/28 08:14:12;;;;;;;16.25;11.10;;;;;;;;;;5092923;28;20024;-62
2023/07/28 08:16:37;;;;;;;14.73;10.27;;;;;;;;;;5088727;28;20012;-60
2023/07/28 08:19:02;;;;;;;16.73;9.00;;;;;;;;;;5092473;28;20377;-60
2023/07/28 08:21:28;;;;;;;14.02;9.27;;;;;;;;;;5099410;28;20382;-60
2023/07/28 08:23:53;;;;;;;12.77;8.48;;;;;;;;;;5091969;28;20965;-59
2023/07/28 08:26:18;;;;;;;13.27;8.35;;;;;;;;;;5089615;28;20028;-60
2023/07/28 08:28:44;;;;;;;12.77;8.98;;;;;;;;;;5093651;28;20028;-60
2023/07/28 08:31:09;;;;;;;15.15;8.43;;;;;;;;;;5100311;28;20459;-59
2023/07/28 08:33:34;;;;;;;12.43;7.78;;;;;;;;;;5112272;28;20379;-60
2023/07/28 08:36:00;;;;;;;12.85;8.15;;;;;;;;;;5093700;28;20492;-60
2023/07/28 08:38:25;;;;;;;12.68;7.55;;;;;;;;;;5095431;28;20032;-60
2023/07/28 08:40:50;;;;;;;10.27;6.90;;;;;;;;;;5094190;28;20053;-59
2023/07/28 08:43:15;;;;;;;12.00;6.50;;;;;;;;;;5095596;28;20024;-60
2023/07/28 08:45:41;;;;;;;11.05;6.45;;;;;;;;;;5095529;28;20031;-60
2023/07/28 08:48:06;;;;;;;10.95;5.53;;;;;;;;;;5095527;28;20031;-61
2023/07/28 08:50:31;;;;;;;10.73;6.95;;;;;;;;;;5093362;28;20024;-61
2023/07/28 08:52:57;;;;;;;11.45;6.72;;;;;;;;;;5087805;28;20376;-62
2023/07/28 08:55:22;;;;;;;9.27;6.43;;;;;;;;;;5111543;28;22029;-61
2023/07/28 08:57:48;;;;;;;10.05;7.15;;;;;;;;;;5101571;28;20468;-62
2023/07/28 09:00:14;;;;;;;11.68;7.07;;;;;;;;;;5103656;28;20531;-63
2023/07/28 09:02:40;;;;;;;11.40;6.95;;;;;;;;;;5105346;28;20019;-61
2023/07/28 09:05:06;;;;;;;11.32;6.43;;;;;;;;;;5111616;28;20090;-62
2023/07/28 09:07:35;;;;;;;12.73;7.15;;;;;;;;;;5097879;28;20554;-62
2023/07/28 09:10:01;;;;;;;7.97;4.95;;;;;;;;;;5095485;28;20027;-62
2023/07/28 09:12:26;;;;;;;11.90;6.22;;;;;;;;;;5100246;28;20023;-63
2023/07/28 09:14:56;;;;;;;9.52;5.95;;;;;;;;;;5099548;28;20016;-60
2023/07/28 09:17:21;;;;;;;8.27;4.75;;;;;;;;;;5099851;28;20020;-60
2023/07/28 09:19:53;;;;;;;8.23;4.90;;;;;;;;;;5102082;28;20051;-59
2023/07/28 09:22:19;;;;;;;9.18;4.90;;;;;;;;;;5092390;28;20541;-60
2023/07/28 09:24:44;;;;;;;13.52;4.45;;;;;;;;;;5103608;28;20024;-60
2023/07/28 09:27:18;;;;;;;10.55;4.78;;;;;;;;;;5114846;28;20490;-61
2023/07/28 09:29:47;;;;;;;8.15;4.40;;;;;;;;;;5096990;28;20030;-61
2023/07/28 09:32:13;;;;;;;8.55;4.85;;;;;;;;;;5093566;28;20016;-61
2023/07/28 09:34:38;;;;;;;6.97;4.57;;;;;;;;;;5091191;28;20349;-61
2023/07/28 09:37:05;;;;;;;9.10;4.93;;;;;;;;;;5096350;28;20028;-61
2023/07/28 09:39:31;;;;;;;8.25;5.10;;;;;;;;;;5084957;28;20403;-61
2023/07/28 09:41:58;;;;;;;10.80;5.30;;;;;;;;;;5094633;28;20020;-59
2023/07/28 09:44:24;;;;;;;8.27;4.70;;;;;;;;;;5101302;28;20487;-58
2023/07/28 09:46:51;;;;;;;9.50;4.70;;;;;;;;;;5094448;28;20020;-59
2023/07/28 09:49:19;;;;;;;7.07;3.80;;;;;;;;;;5093151;28;20107;-58
2023/07/28 09:51:45;;;;;;;7.97;4.35;;;;;;;;;;5093991;28;20020;-58
2023/07/28 09:54:18;;;;;;;8.13;3.92;;;;;;;;;;5113922;28;20020;-61
2023/07/28 09:56:46;;;;;;;8.48;4.30;;;;;;;;;;5114305;28;20024;-62
2023/07/28 09:59:12;;;;;;;7.38;4.85;;;;;;;;;;5114338;28;20051;-62
2023/07/28 10:01:39;;;;;;;8.98;4.97;;;;;;;;;;5114588;28;20434;-62
2023/07/28 10:04:04;;;;;;;10.02;5.68;;;;;;;;;;5096983;28;20032;-62
2023/07/28 10:06:30;;;;;;;8.20;5.57;;;;;;;;;;5093810;28;20031;-62
2023/07/28 10:08:55;;;;;;;10.05;6.10;;;;;;;;;;5094067;28;20023;-62
2023/07/28 10:11:21;;;;;;;8.65;6.05;;;;;;;;;;5093796;28;20016;-61
2023/07/28 10:13:47;;;;;;;9.38;5.65;;;;;;;;;;5093544;28;20023;-63
2023/07/28 10:16:14;;;;;;;10.45;6.55;;;;;;;;;;5092615;28;20020;-62
2023/07/28 10:18:40;;;;;;;11.65;6.47;;;;;;;;;;5094487;28;20390;-65
2023/07/28 10:21:06;;;;;;;10.00;6.20;;;;;;;;;;5114247;28;20053;-61
2023/07/28 10:23:33;;;;;;;8.77;5.30;;;;;;;;;;5099232;28;20482;-62
2023/07/28 10:26:00;;;;;;;10.18;6.07;;;;;;;;;;5097322;28;20380;-62
2023/07/28 10:28:28;;;;;;;7.47;5.07;;;;;;;;;;5093079;28;20532;-60
2023/07/28 10:30:54;;;;;;;8.98;4.63;;;;;;;;;;5078278;28;20469;-61
2023/07/28 10:33:30;;;;;;;8.82;4.10;;;;;;;;;;5079365;28;20045;-62
2023/07/28 10:35:55;;;;;;;5.82;3.47;;;;;;;;;;5093307;28;20106;-62
2023/07/28 10:38:31;;;;;;;8.25;3.90;;;;;;;;;;5093466;28;20408;-62
2023/07/28 10:41:09;;;;;;;7.72;3.80;;;;;;;;;;5092007;28;20031;-63
2023/07/28 10:43:34;;;;;;;8.32;4.30;;;;;;;;;;5090791;28;20040;-63
2023/07/28 10:46:00;;;;;;;9.85;4.03;;;;;;;;;;5093831;28;20136;-62
2023/07/28 10:48:25;;;;;;;7.35;3.75;;;;;;;;;;5100629;28;20111;-61
2023/07/28 10:50:50;;;;;;;7.72;3.65;;;;;;;;;;5093183;28;20142;-62
2023/07/28 10:53:15;;;;;;;7.72;3.60;;;;;;;;;;5093520;28;20099;-60
2023/07/28 10:55:41;;;;;;;6.93;3.60;;;;;;;;;;5093372;28;20044;-62
2023/07/28 10:58:06;;;;;;;6.40;3.72;;;;;;;;;;5092483;28;20027;-62
2023/07/28 11:00:31;;;;;;;6.35;3.63;;;;;;;;;;5086555;28;20390;-61
2023/07/28 11:02:57;;;;;;;6.57;3.15;;;;;;;;;;5095983;28;20463;-60
2023/07/28 11:05:23;;;;;;;11.07;3.35;;;;;;;;;;5107468;28;20020;-60
2023/07/28 11:07:49;;;;;;;6.55;2.92;;;;;;;;;;5097146;28;20019;-60
2023/07/28 11:10:15;;;;;;;4.93;2.80;;;;;;;;;;5113735;28;20020;-60
2023/07/28 11:12:43;;;;;;;6.63;3.00;;;;;;;;;;5103288;28;20103;-60
2023/07/28 11:15:12;;;;;;;5.63;2.90;;;;;;;;;;5092982;28;20016;-62
2023/07/28 11:17:39;;;;;;;5.57;2.50;;;;;;;;;;5092888;28;20099;-61
2023/07/28 11:20:07;;;;;;;5.28;2.10;;;;;;;;;;5094501;28;20461;-61
2023/07/28 11:22:36;;;;;;;5.72;2.65;;;;;;;;;;5091302;28;20046;-62
2023/07/28 11:25:01;;;;;;;5.32;2.13;;;;;;;;;;5091157;28;20498;-60
2023/07/28 11:27:27;;;;;;;9.50;2.53;;;;;;;;;;5091089;28;20020;-62
2023/07/28 11:29:53;;;;;;;6.43;2.20;;;;;;;;;;5089874;28;20142;-61
2023/07/28 11:32:18;;;;;;;4.15;2.22;;;;;;;;;;5095722;28;20054;-62
2023/07/28 11:34:44;;;;;;;4.68;2.20;;;;;;;;;;5090106;28;20016;-62
2023/07/28 11:37:09;;;;;;;5.22;2.50;;;;;;;;;;5094342;28;20031;-60
2023/07/28 11:39:35;;;;;;;4.45;2.33;;;;;;;;;;5090625;28;20031;-61
2023/07/28 11:42:01;;;;;;;6.90;2.30;;;;;;;;;;5091979;28;20031;-62
2023/07/28 11:44:26;;;;;;;5.22;2.33;;;;;;;;;;5090274;28;20024;-62
2023/07/28 11:46:54;;;;;;;6.25;2.10;;;;;;;;;;5090874;28;20020;-62
2023/07/28 11:49:23;;;;;;;4.60;2.15;;;;;;;;;;5090717;28;20024;-62
2023/07/28 11:51:49;;;;;;;5.88;2.47;;;;;;;;;;5085034;28;20527;-62
2023/07/28 11:54:16;;;;;;;5.90;2.75;;;;;;;;;;5089403;28;20383;-62
2023/07/28 11:56:42;;;;;;;7.85;2.90;;;;;;;;;;5086004;28;20070;-62
2023/07/28 11:59:07;;;;;;;5.82;2.72;;;;;;;;;;5092137;28;20016;-62
2023/07/28 12:01:33;;;;;;;6.38;2.75;;;;;;;;;;5094318;28;20047;-62
2023/07/28 12:04:00;;;;;;;6.53;3.17;;;;;;;;;;5096158;28;20054;-62
2023/07/28 12:06:25;;;;;;;5.10;2.60;;;;;;;;;;5096098;28;20388;-62
2023/07/28 12:08:50;;;;;;;5.68;2.95;;;;;;;;;;5096343;28;20020;-62
2023/07/28 12:11:17;;;;;;;6.55;3.00;;;;;;;;;;5096048;28;20020;-62
2023/07/28 12:13:51;;;;;;;6.95;3.60;;;;;;;;;;5095820;28;20021;-62
2023/07/28 12:16:52;;;;;;;5.35;3.30;;;;;;;;;;5095860;28;20028;-65
2023/07/28 12:19:17;;;;;;;6.60;3.22;;;;;;;;;;5019645;28;20535;-64
2023/07/28 12:21:42;;;;;;;6.43;3.40;;;;;;;;;;5033449;28;20038;-66
2023/07/28 12:24:07;;;;;;;6.15;3.17;;;;;;;;;;5032400;28;20029;-62
2023/07/28 12:26:32;;;;;;;6.80;2.90;;;;;;;;;;5013203;28;20469;-63
2023/07/28 12:28:58;;;;;;;5.75;2.85;;;;;;;;;;5013641;28;20452;-63
2023/07/28 12:31:23;;;;;;;9.20;2.88;;;;;;;;;;5013670;28;20386;-64
2023/07/28 12:33:48;;;;;;;6.38;2.90;;;;;;;;;;5013795;28;20038;-64
2023/07/28 12:36:13;;;;;;;5.97;3.10;;;;;;;;;;5013549;28;20037;-61
2023/07/28 12:38:39;;;;;;;5.18;3.03;;;;;;;;;;5013020;28;20033;-64
2023/07/28 12:41:04;;;;;;;9.30;3.22;;;;;;;;;;5013476;28;20525;-62
2023/07/28 12:43:29;;;;;;;16.98;4.75;;;;;;;;;;5013361;28;20025;-62
2023/07/28 12:45:55;;;;;;;8.32;4.60;;;;;;;;;;5013154;28;20037;-62
2023/07/28 12:48:20;;;;;;;6.15;3.47;;;;;;;;;;5013496;28;20400;-62
2023/07/28 12:50:46;;;;;;;14.02;4.28;;;;;;;;;;5013279;28;20026;-62
2023/07/28 12:53:11;;;;;;;5.45;3.38;;;;;;;;;;5043075;28;20456;-62
2023/07/28 12:55:37;;;;;;;9.82;3.60;;;;;;;;;;5088671;28;20044;-62
2023/07/28 12:58:02;;;;;;;7.78;3.75;;;;;;;;;;5095420;28;20417;-62
2023/07/28 13:00:27;;;;;;;9.45;4.43;;;;;;;;;;5095328;28;20024;-62
2023/07/28 13:02:53;;;;;;;9.57;4.85;;;;;;;;;;5095094;28;20051;-62
2023/07/28 13:05:18;;;;;;;16.05;5.63;;;;;;;;;;5080967;28;20055;-63
2023/07/28 13:07:43;;;;;;;11.50;4.55;;;;;;;;;;5074866;28;20095;-63
2023/07/28 13:10:10;;;;;;;6.43;3.85;;;;;;;;;;5074866;28;20529;-63
2023/07/28 13:12:35;;;;;;;6.88;3.22;;;;;;;;;;5078042;28;20019;-63
2023/07/28 13:15:01;;;;;;;6.47;3.35;;;;;;;;;;5094793;28;20459;-63
2023/07/28 13:17:26;;;;;;;5.20;3.03;;;;;;;;;;5094865;28;20024;-63
2023/07/28 13:19:52;;;;;;;4.75;2.78;;;;;;;;;;5094522;28;20118;-63
2023/07/28 13:22:17;;;;;;;5.20;2.70;;;;;;;;;;5093879;28;20024;-64
2023/07/28 13:24:43;;;;;;;5.85;2.92;;;;;;;;;;5092986;28;20020;-63
2023/07/28 13:27:08;;;;;;;4.78;3.00;;;;;;;;;;5093894;28;20024;-65
2023/07/28 13:29:34;;;;;;;6.85;3.22;;;;;;;;;;5093748;28;20019;-66
2023/07/28 13:32:00;;;;;;;10.93;4.82;;;;;;;;;;5094393;28;20017;-67
2023/07/28 13:34:25;;;;;;;11.38;6.25;;;;;;;;;;5085403;28;20472;-66
2023/07/28 13:36:50;;;;;;;10.40;7.05;;;;;;;;;;5074073;28;20055;-66
2023/07/28 13:39:16;;;;;;;7.18;4.68;;;;;;;;;;5090803;28;20020;-67
2023/07/28 13:41:41;;;;;;;7.18;4.95;;;;;;;;;;5094101;28;20028;-68
2023/07/28 13:44:06;;;;;;;11.77;6.38;;;;;;;;;;5094064;28;20097;-67
2023/07/28 13:46:32;;;;;;;9.90;6.25;;;;;;;;;;5093672;28;20541;-69
2023/07/28 13:48:57;;;;;;;10.80;7.25;;;;;;;;;;5094230;28;20016;-68
2023/07/28 13:51:22;;;;;;;11.23;7.15;;;;;;;;;;5091557;28;20091;-66
2023/07/28 13:53:47;;;;;;;12.60;8.10;;;;;;;;;;5092957;28;20020;-66
2023/07/28 13:56:13;;;;;;;14.82;8.75;;;;;;;;;;5091673;28;20387;-67
2023/07/28 13:58:38;;;;;;;13.77;7.90;;;;;;;;;;5094167;28;20104;-67
2023/07/28 14:01:03;;;;;;;10.70;6.80;;;;;;;;;;5094169;28;20494;-68
2023/07/28 14:03:28;;;;;;;11.68;7.40;;;;;;;;;;5093663;28;20024;-64
2023/07/28 14:05:54;;;;;;;11.25;6.93;;;;;;;;;;5094166;28;20028;-65
2023/07/28 14:08:19;;;;;;;11.63;7.07;;;;;;;;;;5093314;28;20073;-65
2023/07/28 14:10:48;;;;;;;10.25;6.90;;;;;;;;;;5092903;28;20020;-64
2023/07/28 14:13:13;;;;;;;9.95;5.40;;;;;;;;;;5087602;28;20028;-65
2023/07/28 14:15:39;;;;;;;9.43;5.63;;;;;;;;;;5092707;28;20104;-65
2023/07/28 14:18:04;;;;;;;7.43;5.05;;;;;;;;;;5092562;28;20085;-65